Nearby METAR Reports

 

KBVO - Bartlesville, Oklahoma, USA
Distance from station: WNW 10mi, 16km
Updated: Sat, 21-Sep-2019 11:05am CDT
Thunderstorm, Overcast
Thunderstorm, Overcast
 Wind from S
Wind: S 13 mph , 20 km/h, Gust: 22 mph , 35 km/h
Temperature: 73°F , 23°C
Dew Point: 72°F , 22°C
Humidity: 94%
Barometer: 30.03 inHg , 1016.9 hPa
Summary: Thunderstorm
Clouds: Overcast
Visibility: 10 miles , 16 km
Cloud details: Mostly cloudy 1300 ft
Overcast 2100 ft
2019/09/21 16:05 KBVO 211605Z AUTO 17011G19KT 10SM TS BKN013 OVC021 23/22 A3003 RMK AO2 LTG DSNT NE TSB03 T02330222
KCFV - Coffeyville, Kansas, USA
Distance from station: NNE 31mi, 49km
Updated: Sat, 21-Sep-2019 11:15am CDT
Light rain, Mist, Overcast
Light rain, Mist, Overcast
 Wind from S
Wind: S 20 mph , 31 km/h, Gust: 30 mph , 48 km/h
Temperature: 73°F , 23°C
Dew Point: 70°F , 21°C
Humidity: 89%
Barometer: 30.03 inHg , 1016.9 hPa
Summary: Light rain, Mist
Clouds: Overcast
Visibility: 3 miles , 5 km
Cloud details: Few Clouds 900 ft
Mostly cloudy 3200 ft
Overcast 4700 ft
2019/09/21 16:15 KCFV 211615Z AUTO 17017G26KT 3SM -RA BR FEW009 BKN032 OVC047 23/21 A3003 RMK AO2 PK WND 16026/1606 LTG DSNT ALQDS P0012 T02280211
 
KIDP - Independence, Kansas, USA
Distance from station: N 32mi, 52km
Updated: Sat, 21-Sep-2019 10:55am CDT
Light thunderstorm, Rain, Mist, Overcast
Light thunderstorm, Rain, Mist, Overcast
 Wind from S
Wind: S 17 mph , 28 km/h, Gust: 22 mph , 35 km/h
Temperature: 73°F , 23°C
Dew Point: 72°F , 22°C
Humidity: 94%
Barometer: 30.03 inHg , 1016.9 hPa
Summary: Light thunderstorm, Rain, Mist
Clouds: Overcast
Visibility: 5 miles , 8 km
Cloud details: Partly cloudy 600 ft
Mostly cloudy 1000 ft
Overcast 2600 ft
2019/09/21 15:55 KIDP 211555Z AUTO 17015G19KT 5SM -TSRA BR SCT006 BKN010 OVC026 23/22 A3003 RMK AO2 LTG DSNT ALQDS P0018 T02250218
KGCM - Claremore, Oklahoma, USA
Distance from station: SE 35mi, 56km
Updated: Sat, 21-Sep-2019 10:55am CDT
Overcast
Overcast
 Wind from S
Wind: S 9 mph , 15 km/h, Gust: 18 mph , 30 km/h
Temperature: 75°F , 24°C
Dew Point: 70°F , 21°C
Humidity: 83%
Barometer: 30.08 inHg , 1018.6 hPa
Clouds: Overcast
Visibility: 10 miles , 16 km
Cloud details: Partly cloudy 2100 ft
Mostly cloudy 2500 ft
Overcast 3700 ft
2019/09/21 15:55 KGCM 211555Z AUTO 17008G16KT 10SM SCT021 BKN025 OVC037 24/21 A3008 RMK AO2
 
KTUL - Tulsa, Oklahoma, USA
Distance from station: S 35mi, 56km
Updated: Sat, 21-Sep-2019 10:53am CDT
Light rain, Overcast
Light rain, Overcast
 Wind from S
Wind: S 13 mph , 20 km/h
Temperature: 77°F , 25°C
Dew Point: 73°F , 23°C
Humidity: 89%
Barometer: 30.04 inHg , 1017.3 hPa
Summary: Light rain
Clouds: Overcast
Visibility: 3 miles , 5 km
Cloud details: Mostly cloudy 2700 ft
Overcast 3300 ft
2019/09/21 15:53 KTUL 211553Z 18011KT 3SM R18L/6000VP6000FT -RA BKN027 OVC033 25/23 A3004 RMK AO2 SFC VIS 7 RAB41 SLP163 P0000 T02500228
KRVS - Tulsa, Oklahoma, USA
Distance from station: S 46mi, 74km
Updated: Sat, 21-Sep-2019 10:53am CDT
Overcast
Overcast
 Wind from S
Wind: S 12 mph , 19 km/h, Gust: 24 mph , 39 km/h
Temperature: 81°F , 27°C
Heat Index: 85°F , 29°C
Dew Point: 72°F , 22°C
Humidity: 74%
Barometer: 30.04 inHg , 1017.3 hPa
Clouds: Overcast
Visibility: 10 miles , 16 km
Cloud details: Mostly cloudy 2700 ft
Overcast 3200 ft
2019/09/21 15:53 KRVS 211553Z 19010G21KT 10SM BKN027 OVC032 27/22 A3004 RMK AO2 SLP175 T02670217
 
KPPF - Parsons, Kansas, USA
Distance from station: NNE 48mi, 76km
Updated: Sat, 21-Sep-2019 11:15am CDT
Heavy thunderstorm, Rain, Mist, Overcast
Heavy thunderstorm, Rain, Mist, Overcast
 Wind from S
Wind: S 12 mph , 19 km/h, Gust: 24 mph , 39 km/h
Temperature: 73°F , 23°C
Dew Point: 73°F , 23°C
Humidity: 100%
Barometer: 30.06 inHg , 1017.9 hPa
Summary: Heavy thunderstorm, Rain, Mist
Clouds: Overcast
Visibility: 3/4 mile , 1.2 km
Cloud details: Mostly cloudy 800 ft
Overcast 1200 ft
2019/09/21 16:15 KPPF 211615Z AUTO 19010G21KT 3/4SM +TSRA BR BKN008 OVC012 23/23 A3006 RMK AO2 LTG DSNT W AND NW TSB1555 P0021 T02280228 $
KGMJ - Grove, Oklahoma, USA
Distance from station: E 63mi, 101km
Updated: Sat, 21-Sep-2019 10:55am CDT
Mostly cloudy
Mostly cloudy
 Wind from S
Wind: S 12 mph , 19 km/h, Gust: 24 mph , 39 km/h
Temperature: 77°F , 25°C
Dew Point: 68°F , 20°C
Humidity: 74%
Barometer: 30.09 inHg , 1019 hPa
Clouds: Mostly cloudy
Visibility: 10 miles , 16 km
Cloud details: Partly cloudy 2500 ft
Partly cloudy 3200 ft
Mostly cloudy 6000 ft
2019/09/21 15:55 KGMJ 211555Z AUTO 17010G21KT 10SM SCT025 SCT032 BKN060 25/20 A3009 RMK AO2 LTG DSNT NW
 
KPNC - Ponca City, Oklahoma, USA
Distance from station: W 69mi, 111km
Updated: Sat, 21-Sep-2019 10:53am CDT
Overcast
Overcast
 Wind from S
Wind: S 9 mph , 15 km/h, Gust: 18 mph , 30 km/h
Temperature: 79°F , 26°C
Dew Point: 72°F , 22°C
Humidity: 79%
Barometer: 29.98 inHg , 1015.2 hPa
Clouds: Overcast
Visibility: 10 miles , 16 km
Cloud details: Overcast 2000 ft
2019/09/21 15:53 KPNC 211553Z AUTO 17008G16KT 10SM OVC020 26/22 A2998 RMK AO2 SLP140 T02560217
KCNU - Chanute, Kansas, USA
Distance from station: NNE 69mi, 112km
Updated: Sat, 21-Sep-2019 10:52am CDT
Light rain, Overcast
Light rain, Overcast
 Wind from S
Wind: S 20 mph , 31 km/h, Gust: 29 mph , 46 km/h
Temperature: 77°F , 25°C
Dew Point: 72°F , 22°C
Humidity: 83%
Barometer: 30.03 inHg , 1016.9 hPa
Summary: Light rain
Clouds: Overcast
Visibility: 10 miles , 16 km
Cloud details: Mostly cloudy 1700 ft
Overcast 2400 ft
2019/09/21 15:52 KCNU 211552Z AUTO 18017G25KT 10SM -RA BKN017 OVC024 25/22 A3003 RMK AO2 LTG DSNT S-W RAB19 SLP157 P0000 T02500217